sensor_id;sensor_type;location;lat;lon;timestamp;P1;durP1;ratioP1;P2;durP2;ratioP2
65543;SDS011;52173;45.204;39.240;2023-08-06T02:15:42;7.55;;;4.60;;
65543;SDS011;52173;45.204;39.240;2023-08-06T02:18:09;8.82;;;4.18;;
65543;SDS011;52173;45.204;39.240;2023-08-06T02:20:34;8.18;;;4.18;;
65543;SDS011;52173;45.204;39.240;2023-08-06T02:23:01;10.90;;;4.82;;
65543;SDS011;52173;45.204;39.240;2023-08-06T02:25:27;7.72;;;4.32;;
65543;SDS011;52173;45.204;39.240;2023-08-06T02:27:52;14.70;;;5.00;;
65543;SDS011;52173;45.204;39.240;2023-08-06T02:30:18;8.52;;;4.30;;
65543;SDS011;52173;45.204;39.240;2023-08-06T02:32:44;8.98;;;3.83;;
65543;SDS011;52173;45.204;39.240;2023-08-06T02:35:10;6.68;;;4.10;;
65543;SDS011;52173;45.204;39.240;2023-08-06T02:37:36;9.63;;;4.15;;
65543;SDS011;52173;45.204;39.240;2023-08-06T02:40:02;8.00;;;4.55;;
65543;SDS011;52173;45.204;39.240;2023-08-06T02:42:29;8.27;;;4.03;;
65543;SDS011;52173;45.204;39.240;2023-08-06T02:45:02;9.02;;;4.85;;
65543;SDS011;52173;45.204;39.240;2023-08-06T02:47:28;7.95;;;4.20;;
65543;SDS011;52173;45.204;39.240;2023-08-06T02:49:54;22.30;;;4.63;;
65543;SDS011;52173;45.204;39.240;2023-08-06T02:52:20;11.00;;;3.97;;
65543;SDS011;52173;45.204;39.240;2023-08-06T02:54:46;8.30;;;4.00;;
65543;SDS011;52173;45.204;39.240;2023-08-06T02:57:19;8.55;;;4.10;;
65543;SDS011;52173;45.204;39.240;2023-08-06T02:59:49;13.88;;;4.82;;
65543;SDS011;52173;45.204;39.240;2023-08-06T03:02:19;9.27;;;4.97;;
65543;SDS011;52173;45.204;39.240;2023-08-06T03:07:52;12.95;;;4.38;;
65543;SDS011;52173;45.204;39.240;2023-08-06T03:10:22;10.02;;;4.50;;
65543;SDS011;52173;45.204;39.240;2023-08-06T03:12:50;9.25;;;4.30;;
65543;SDS011;52173;45.204;39.240;2023-08-06T03:15:18;8.27;;;4.60;;
65543;SDS011;52173;45.204;39.240;2023-08-06T03:17:45;11.43;;;4.40;;
65543;SDS011;52173;45.204;39.240;2023-08-06T03:20:12;11.75;;;4.78;;
65543;SDS011;52173;45.204;39.240;2023-08-06T03:22:41;8.45;;;4.40;;
65543;SDS011;52173;45.204;39.240;2023-08-06T03:25:08;9.15;;;4.57;;
65543;SDS011;52173;45.204;39.240;2023-08-06T03:27:36;9.40;;;4.55;;
65543;SDS011;52173;45.204;39.240;2023-08-06T03:30:02;10.73;;;4.88;;
65543;SDS011;52173;45.204;39.240;2023-08-06T03:32:30;8.30;;;4.82;;
65543;SDS011;52173;45.204;39.240;2023-08-06T03:34:57;11.38;;;4.95;;
65543;SDS011;52173;45.204;39.240;2023-08-06T03:37:28;9.07;;;4.88;;
65543;SDS011;52173;45.204;39.240;2023-08-06T03:39:54;9.93;;;4.90;;
65543;SDS011;52173;45.204;39.240;2023-08-06T03:42:21;12.48;;;4.50;;
65543;SDS011;52173;45.204;39.240;2023-08-06T03:44:46;8.48;;;4.55;;
65543;SDS011;52173;45.204;39.240;2023-08-06T03:47:15;11.65;;;4.93;;
65543;SDS011;52173;45.204;39.240;2023-08-06T03:49:41;17.88;;;4.88;;
65543;SDS011;52173;45.204;39.240;2023-08-06T03:52:09;9.52;;;4.82;;
65543;SDS011;52173;45.204;39.240;2023-08-06T03:54:35;11.07;;;4.78;;
65543;SDS011;52173;45.204;39.240;2023-08-06T03:57:02;9.60;;;4.90;;
65543;SDS011;52173;45.204;39.240;2023-08-06T03:59:28;12.68;;;4.05;;
65543;SDS011;52173;45.204;39.240;2023-08-06T04:01:56;17.02;;;4.95;;
65543;SDS011;52173;45.204;39.240;2023-08-06T04:04:23;7.80;;;4.70;;
65543;SDS011;52173;45.204;39.240;2023-08-06T04:06:49;10.50;;;4.93;;
65543;SDS011;52173;45.204;39.240;2023-08-06T04:09:15;9.73;;;4.50;;
65543;SDS011;52173;45.204;39.240;2023-08-06T04:11:42;9.38;;;4.75;;
65543;SDS011;52173;45.204;39.240;2023-08-06T04:14:08;10.65;;;4.90;;
65543;SDS011;52173;45.204;39.240;2023-08-06T04:16:34;10.05;;;4.53;;
65543;SDS011;52173;45.204;39.240;2023-08-06T04:19:01;16.50;;;4.60;;
65543;SDS011;52173;45.204;39.240;2023-08-06T04:21:27;10.50;;;4.53;;
65543;SDS011;52173;45.204;39.240;2023-08-06T04:23:53;7.60;;;4.30;;
65543;SDS011;52173;45.204;39.240;2023-08-06T04:26:20;11.38;;;3.75;;
65543;SDS011;52173;45.204;39.240;2023-08-06T04:28:46;11.45;;;4.43;;
65543;SDS011;52173;45.204;39.240;2023-08-06T04:31:12;9.60;;;3.78;;
65543;SDS011;52173;45.204;39.240;2023-08-06T04:33:40;7.40;;;4.05;;
65543;SDS011;52173;45.204;39.240;2023-08-06T04:36:09;8.13;;;3.95;;
65543;SDS011;52173;45.204;39.240;2023-08-06T04:44:24;7.75;;;3.42;;
65543;SDS011;52173;45.204;39.240;2023-08-06T04:46:54;10.63;;;3.50;;
65543;SDS011;52173;45.204;39.240;2023-08-06T04:49:20;7.50;;;2.97;;
65543;SDS011;52173;45.204;39.240;2023-08-06T04:51:47;6.80;;;2.97;;
65543;SDS011;52173;45.204;39.240;2023-08-06T04:56:56;10.10;;;3.08;;
65543;SDS011;52173;45.204;39.240;2023-08-06T05:04:43;6.18;;;2.63;;
65543;SDS011;52173;45.204;39.240;2023-08-06T05:10:20;10.27;;;3.08;;
65543;SDS011;52173;45.204;39.240;2023-08-06T05:12:47;6.97;;;3.17;;
65543;SDS011;52173;45.204;39.240;2023-08-06T05:15:13;6.10;;;3.00;;
65543;SDS011;52173;45.204;39.240;2023-08-06T05:17:39;6.82;;;3.10;;
65543;SDS011;52173;45.204;39.240;2023-08-06T05:20:05;7.72;;;2.97;;
65543;SDS011;52173;45.204;39.240;2023-08-06T05:22:31;8.57;;;2.90;;
65543;SDS011;52173;45.204;39.240;2023-08-06T05:24:57;5.38;;;2.97;;
65543;SDS011;52173;45.204;39.240;2023-08-06T05:27:24;11.70;;;3.20;;
65543;SDS011;52173;45.204;39.240;2023-08-06T05:29:50;7.95;;;3.50;;
65543;SDS011;52173;45.204;39.240;2023-08-06T05:32:20;11.50;;;3.88;;
65543;SDS011;52173;45.204;39.240;2023-08-06T05:34:46;9.98;;;3.30;;
65543;SDS011;52173;45.204;39.240;2023-08-06T05:37:12;5.75;;;3.10;;
65543;SDS011;52173;45.204;39.240;2023-08-06T05:39:38;10.38;;;3.47;;
65543;SDS011;52173;45.204;39.240;2023-08-06T05:42:04;4.95;;;2.70;;
65543;SDS011;52173;45.204;39.240;2023-08-06T05:44:30;9.93;;;3.60;;
65543;SDS011;52173;45.204;39.240;2023-08-06T05:46:56;6.03;;;3.10;;
65543;SDS011;52173;45.204;39.240;2023-08-06T05:49:23;6.35;;;2.75;;
65543;SDS011;52173;45.204;39.240;2023-08-06T05:51:49;7.60;;;3.20;;
65543;SDS011;52173;45.204;39.240;2023-08-06T05:54:17;9.23;;;3.20;;
65543;SDS011;52173;45.204;39.240;2023-08-06T05:56:43;7.15;;;3.00;;
65543;SDS011;52173;45.204;39.240;2023-08-06T05:59:10;8.93;;;3.05;;
65543;SDS011;52173;45.204;39.240;2023-08-06T06:01:36;5.93;;;3.17;;
65543;SDS011;52173;45.204;39.240;2023-08-06T06:04:02;8.85;;;3.20;;
65543;SDS011;52173;45.204;39.240;2023-08-06T06:06:29;9.48;;;2.92;;
65543;SDS011;52173;45.204;39.240;2023-08-06T06:08:55;12.88;;;3.50;;
65543;SDS011;52173;45.204;39.240;2023-08-06T06:11:22;10.68;;;2.70;;
65543;SDS011;52173;45.204;39.240;2023-08-06T06:16:57;7.20;;;3.13;;
65543;SDS011;52173;45.204;39.240;2023-08-06T06:19:34;5.50;;;2.75;;
65543;SDS011;52173;45.204;39.240;2023-08-06T06:22:01;9.27;;;3.03;;
65543;SDS011;52173;45.204;39.240;2023-08-06T06:24:27;10.30;;;2.95;;
65543;SDS011;52173;45.204;39.240;2023-08-06T06:29:23;20.95;;;3.58;;
65543;SDS011;52173;45.204;39.240;2023-08-06T06:31:50;6.03;;;2.25;;
65543;SDS011;52173;45.204;39.240;2023-08-06T06:34:16;9.50;;;2.40;;
65543;SDS011;52173;45.204;39.240;2023-08-06T06:36:42;4.88;;;2.20;;
65543;SDS011;52173;45.204;39.240;2023-08-06T06:39:08;4.45;;;2.15;;
65543;SDS011;52173;45.204;39.240;2023-08-06T06:41:34;11.77;;;2.58;;
65543;SDS011;52173;45.204;39.240;2023-08-06T06:44:09;8.45;;;2.25;;
65543;SDS011;52173;45.204;39.240;2023-08-06T06:50:02;6.72;;;2.10;;
65543;SDS011;52173;45.204;39.240;2023-08-06T06:52:29;4.47;;;1.75;;
65543;SDS011;52173;45.204;39.240;2023-08-06T06:54:55;10.82;;;2.30;;
65543;SDS011;52173;45.204;39.240;2023-08-06T06:57:20;8.48;;;2.60;;
65543;SDS011;52173;45.204;39.240;2023-08-06T06:59:47;6.40;;;2.13;;
65543;SDS011;52173;45.204;39.240;2023-08-06T07:02:14;5.47;;;1.92;;
65543;SDS011;52173;45.204;39.240;2023-08-06T07:04:41;7.63;;;1.98;;
65543;SDS011;52173;45.204;39.240;2023-08-06T07:07:07;4.63;;;1.58;;
65543;SDS011;52173;45.204;39.240;2023-08-06T07:09:32;6.57;;;2.08;;
65543;SDS011;52173;45.204;39.240;2023-08-06T07:11:59;3.95;;;1.73;;
65543;SDS011;52173;45.204;39.240;2023-08-06T07:14:28;5.78;;;1.70;;
65543;SDS011;52173;45.204;39.240;2023-08-06T07:16:53;11.20;;;1.98;;
65543;SDS011;52173;45.204;39.240;2023-08-06T07:24:47;10.43;;;1.83;;
65543;SDS011;52173;45.204;39.240;2023-08-06T07:27:13;5.53;;;1.60;;
65543;SDS011;52173;45.204;39.240;2023-08-06T07:29:39;4.75;;;1.50;;
65543;SDS011;52173;45.204;39.240;2023-08-06T07:32:06;6.10;;;1.90;;
65543;SDS011;52173;45.204;39.240;2023-08-06T07:34:32;8.50;;;1.80;;
65543;SDS011;52173;45.204;39.240;2023-08-06T07:36:57;8.45;;;1.90;;
65543;SDS011;52173;45.204;39.240;2023-08-06T07:39:23;6.30;;;1.80;;
65543;SDS011;52173;45.204;39.240;2023-08-06T07:41:49;6.10;;;1.75;;
65543;SDS011;52173;45.204;39.240;2023-08-06T07:44:15;13.30;;;2.28;;
65543;SDS011;52173;45.204;39.240;2023-08-06T07:46:43;18.85;;;2.70;;
65543;SDS011;52173;45.204;39.240;2023-08-06T07:49:09;6.28;;;1.60;;
65543;SDS011;52173;45.204;39.240;2023-08-06T07:51:36;9.30;;;1.95;;
65543;SDS011;52173;45.204;39.240;2023-08-06T07:54:02;6.88;;;1.92;;
65543;SDS011;52173;45.204;39.240;2023-08-06T07:56:28;6.15;;;1.52;;
65543;SDS011;52173;45.204;39.240;2023-08-06T07:58:54;4.07;;;1.60;;
65543;SDS011;52173;45.204;39.240;2023-08-06T08:01:21;10.68;;;1.60;;
65543;SDS011;52173;45.204;39.240;2023-08-06T08:03:48;4.15;;;1.63;;
65543;SDS011;52173;45.204;39.240;2023-08-06T08:06:13;7.72;;;1.83;;
65543;SDS011;52173;45.204;39.240;2023-08-06T08:08:39;7.88;;;1.70;;
65543;SDS011;52173;45.204;39.240;2023-08-06T08:11:05;8.68;;;2.00;;
65543;SDS011;52173;45.204;39.240;2023-08-06T08:13:31;9.40;;;1.80;;
65543;SDS011;52173;45.204;39.240;2023-08-06T08:16:07;6.65;;;1.77;;
65543;SDS011;52173;45.204;39.240;2023-08-06T08:18:33;14.20;;;1.60;;
65543;SDS011;52173;45.204;39.240;2023-08-06T08:20:59;5.60;;;1.40;;
65543;SDS011;52173;45.204;39.240;2023-08-06T08:23:24;9.18;;;1.90;;
65543;SDS011;52173;45.204;39.240;2023-08-06T08:25:50;5.90;;;1.83;;
65543;SDS011;52173;45.204;39.240;2023-08-06T08:31:28;9.07;;;1.50;;
65543;SDS011;52173;45.204;39.240;2023-08-06T08:34:01;11.73;;;2.30;;
65543;SDS011;52173;45.204;39.240;2023-08-06T08:36:27;12.00;;;2.10;;
65543;SDS011;52173;45.204;39.240;2023-08-06T08:38:52;20.58;;;2.45;;
65543;SDS011;52173;45.204;39.240;2023-08-06T08:41:19;13.13;;;1.88;;
65543;SDS011;52173;45.204;39.240;2023-08-06T08:43:45;12.38;;;1.95;;
65543;SDS011;52173;45.204;39.240;2023-08-06T08:48:58;10.60;;;2.22;;
65543;SDS011;52173;45.204;39.240;2023-08-06T08:51:27;12.40;;;1.65;;
65543;SDS011;52173;45.204;39.240;2023-08-06T08:53:53;19.70;;;2.20;;
65543;SDS011;52173;45.204;39.240;2023-08-06T08:56:23;12.25;;;1.67;;
65543;SDS011;52173;45.204;39.240;2023-08-06T08:58:50;9.48;;;1.80;;
65543;SDS011;52173;45.204;39.240;2023-08-06T09:01:18;11.77;;;2.08;;
65543;SDS011;52173;45.204;39.240;2023-08-06T09:03:44;8.30;;;2.00;;
65543;SDS011;52173;45.204;39.240;2023-08-06T09:06:11;6.55;;;1.88;;
65543;SDS011;52173;45.204;39.240;2023-08-06T09:08:43;8.25;;;1.88;;
65543;SDS011;52173;45.204;39.240;2023-08-06T09:11:12;8.50;;;1.52;;
65543;SDS011;52173;45.204;39.240;2023-08-06T09:13:38;14.57;;;1.75;;
65543;SDS011;52173;45.204;39.240;2023-08-06T09:21:20;7.65;;;1.85;;
65543;SDS011;52173;45.204;39.240;2023-08-06T09:23:46;9.02;;;1.65;;
65543;SDS011;52173;45.204;39.240;2023-08-06T09:26:12;8.10;;;2.13;;
65543;SDS011;52173;45.204;39.240;2023-08-06T09:28:42;16.10;;;1.80;;
65543;SDS011;52173;45.204;39.240;2023-08-06T09:34:20;7.00;;;1.88;;
65543;SDS011;52173;45.204;39.240;2023-08-06T09:36:48;9.60;;;1.92;;
65543;SDS011;52173;45.204;39.240;2023-08-06T09:39:14;15.25;;;2.45;;
65543;SDS011;52173;45.204;39.240;2023-08-06T09:41:41;12.10;;;1.90;;
65543;SDS011;52173;45.204;39.240;2023-08-06T09:44:20;9.27;;;1.67;;
65543;SDS011;52173;45.204;39.240;2023-08-06T09:46:51;13.32;;;2.22;;
65543;SDS011;52173;45.204;39.240;2023-08-06T09:49:18;14.05;;;2.08;;
65543;SDS011;52173;45.204;39.240;2023-08-06T09:51:44;9.30;;;1.80;;
65543;SDS011;52173;45.204;39.240;2023-08-06T09:54:11;11.02;;;1.90;;
65543;SDS011;52173;45.204;39.240;2023-08-06T09:56:38;6.93;;;1.98;;
65543;SDS011;52173;45.204;39.240;2023-08-06T09:59:05;10.05;;;1.70;;
65543;SDS011;52173;45.204;39.240;2023-08-06T10:01:34;16.90;;;2.38;;
65543;SDS011;52173;45.204;39.240;2023-08-06T10:04:08;8.15;;;1.90;;
65543;SDS011;52173;45.204;39.240;2023-08-06T10:06:37;13.10;;;2.28;;
65543;SDS011;52173;45.204;39.240;2023-08-06T10:09:03;9.07;;;1.95;;
65543;SDS011;52173;45.204;39.240;2023-08-06T10:11:29;15.50;;;2.15;;
65543;SDS011;52173;45.204;39.240;2023-08-06T10:16:51;17.90;;;2.60;;
65543;SDS011;52173;45.204;39.240;2023-08-06T10:24:51;7.13;;;1.85;;
65543;SDS011;52173;45.204;39.240;2023-08-06T10:29:48;11.30;;;1.80;;
65543;SDS011;52173;45.204;39.240;2023-08-06T10:32:16;7.72;;;1.52;;
65543;SDS011;52173;45.204;39.240;2023-08-06T10:34:55;14.50;;;1.73;;
65543;SDS011;52173;45.204;39.240;2023-08-06T10:37:35;10.63;;;1.85;;
65543;SDS011;52173;45.204;39.240;2023-08-06T10:46:35;12.18;;;2.50;;
65543;SDS011;52173;45.204;39.240;2023-08-06T10:49:03;14.90;;;2.40;;
65543;SDS011;52173;45.204;39.240;2023-08-06T10:51:29;13.15;;;2.08;;
65543;SDS011;52173;45.204;39.240;2023-08-06T10:53:56;16.25;;;2.47;;
65543;SDS011;52173;45.204;39.240;2023-08-06T10:56:24;10.00;;;2.17;;
65543;SDS011;52173;45.204;39.240;2023-08-06T10:58:57;8.38;;;2.53;;
65543;SDS011;52173;45.204;39.240;2023-08-06T11:01:24;5.22;;;1.80;;
65543;SDS011;52173;45.204;39.240;2023-08-06T11:03:50;8.57;;;1.73;;
65543;SDS011;52173;45.204;39.240;2023-08-06T11:06:19;14.40;;;1.90;;
65543;SDS011;52173;45.204;39.240;2023-08-06T11:08:54;7.55;;;1.80;;
65543;SDS011;52173;45.204;39.240;2023-08-06T11:11:22;9.82;;;1.85;;
65543;SDS011;52173;45.204;39.240;2023-08-06T11:13:49;4.20;;;1.83;;
65543;SDS011;52173;45.204;39.240;2023-08-06T11:19:44;8.95;;;1.95;;
65543;SDS011;52173;45.204;39.240;2023-08-06T11:25:06;9.70;;;1.80;;
65543;SDS011;52173;45.204;39.240;2023-08-06T11:27:33;4.15;;;1.30;;
65543;SDS011;52173;45.204;39.240;2023-08-06T11:29:59;7.10;;;1.50;;
65543;SDS011;52173;45.204;39.240;2023-08-06T11:32:25;9.38;;;2.05;;
65543;SDS011;52173;45.204;39.240;2023-08-06T11:35:11;8.55;;;1.92;;
65543;SDS011;52173;45.204;39.240;2023-08-06T11:40:08;11.02;;;1.95;;
65543;SDS011;52173;45.204;39.240;2023-08-06T11:42:36;10.85;;;2.30;;
65543;SDS011;52173;45.204;39.240;2023-08-06T11:45:02;19.73;;;1.92;;
65543;SDS011;52173;45.204;39.240;2023-08-06T11:47:28;6.15;;;1.60;;
65543;SDS011;52173;45.204;39.240;2023-08-06T11:49:54;4.75;;;1.63;;
65543;SDS011;52173;45.204;39.240;2023-08-06T11:55:15;6.82;;;1.75;;
65543;SDS011;52173;45.204;39.240;2023-08-06T11:57:43;11.98;;;2.13;;
65543;SDS011;52173;45.204;39.240;2023-08-06T12:02:42;7.00;;;1.73;;
65543;SDS011;52173;45.204;39.240;2023-08-06T12:05:20;11.23;;;1.90;;
65543;SDS011;52173;45.204;39.240;2023-08-06T12:13:13;12.38;;;2.05;;
65543;SDS011;52173;45.204;39.240;2023-08-06T12:15:39;11.68;;;2.03;;
65543;SDS011;52173;45.204;39.240;2023-08-06T12:18:05;7.28;;;1.83;;
65543;SDS011;52173;45.204;39.240;2023-08-06T12:20:31;8.20;;;1.75;;
65543;SDS011;52173;45.204;39.240;2023-08-06T12:25:28;9.18;;;2.03;;
65543;SDS011;52173;45.204;39.240;2023-08-06T12:27:56;9.88;;;2.05;;
65543;SDS011;52173;45.204;39.240;2023-08-06T12:30:21;15.13;;;2.00;;
65543;SDS011;52173;45.204;39.240;2023-08-06T12:32:47;5.68;;;1.20;;
65543;SDS011;52173;45.204;39.240;2023-08-06T12:35:15;5.47;;;2.20;;
65543;SDS011;52173;45.204;39.240;2023-08-06T12:37:41;8.57;;;1.95;;
65543;SDS011;52173;45.204;39.240;2023-08-06T12:40:09;4.55;;;1.70;;
65543;SDS011;52173;45.204;39.240;2023-08-06T12:42:36;7.55;;;1.75;;
65543;SDS011;52173;45.204;39.240;2023-08-06T12:45:02;10.65;;;2.35;;
65543;SDS011;52173;45.204;39.240;2023-08-06T12:47:29;17.65;;;2.28;;
65543;SDS011;52173;45.204;39.240;2023-08-06T12:50:00;16.13;;;2.20;;
65543;SDS011;52173;45.204;39.240;2023-08-06T12:52:26;9.23;;;2.03;;
65543;SDS011;52173;45.204;39.240;2023-08-06T12:54:51;11.77;;;2.40;;
65543;SDS011;52173;45.204;39.240;2023-08-06T12:57:17;11.80;;;2.35;;
65543;SDS011;52173;45.204;39.240;2023-08-06T12:59:43;5.88;;;1.90;;
65543;SDS011;52173;45.204;39.240;2023-08-06T13:02:11;5.68;;;2.30;;
65543;SDS011;52173;45.204;39.240;2023-08-06T13:04:36;7.57;;;2.22;;
65543;SDS011;52173;45.204;39.240;2023-08-06T13:07:02;5.38;;;1.90;;
65543;SDS011;52173;45.204;39.240;2023-08-06T13:09:28;13.13;;;1.73;;
65543;SDS011;52173;45.204;39.240;2023-08-06T13:11:55;8.68;;;2.13;;
65543;SDS011;52173;45.204;39.240;2023-08-06T13:14:20;4.75;;;1.70;;
65543;SDS011;52173;45.204;39.240;2023-08-06T13:16:46;11.98;;;2.20;;
65543;SDS011;52173;45.204;39.240;2023-08-06T13:19:14;8.05;;;1.77;;
65543;SDS011;52173;45.204;39.240;2023-08-06T13:24:06;7.38;;;1.98;;
65543;SDS011;52173;45.204;39.240;2023-08-06T13:26:33;9.43;;;2.25;;
65543;SDS011;52173;45.204;39.240;2023-08-06T13:28:59;5.05;;;1.73;;
65543;SDS011;52173;45.204;39.240;2023-08-06T13:31:25;6.82;;;1.77;;
65543;SDS011;52173;45.204;39.240;2023-08-06T13:33:51;6.15;;;1.73;;
65543;SDS011;52173;45.204;39.240;2023-08-06T13:36:26;6.30;;;1.70;;
65543;SDS011;52173;45.204;39.240;2023-08-06T13:38:52;25.80;;;2.17;;
65543;SDS011;52173;45.204;39.240;2023-08-06T13:41:18;4.13;;;1.50;;
65543;SDS011;52173;45.204;39.240;2023-08-06T13:43:44;14.68;;;2.25;;
65543;SDS011;52173;45.204;39.240;2023-08-06T13:46:11;13.15;;;2.10;;
65543;SDS011;52173;45.204;39.240;2023-08-06T13:48:45;7.82;;;1.88;;
65543;SDS011;52173;45.204;39.240;2023-08-06T13:51:12;7.20;;;1.92;;
65543;SDS011;52173;45.204;39.240;2023-08-06T13:53:39;8.73;;;1.85;;
65543;SDS011;52173;45.204;39.240;2023-08-06T13:58:47;7.07;;;1.87;;
65543;SDS011;52173;45.204;39.240;2023-08-06T14:01:13;9.45;;;2.13;;
65543;SDS011;52173;45.204;39.240;2023-08-06T14:03:38;6.43;;;2.83;;
65543;SDS011;52173;45.204;39.240;2023-08-06T14:06:04;5.85;;;1.80;;
65543;SDS011;52173;45.204;39.240;2023-08-06T14:08:31;8.25;;;2.33;;
65543;SDS011;52173;45.204;39.240;2023-08-06T14:10:57;8.77;;;1.95;;
65543;SDS011;52173;45.204;39.240;2023-08-06T14:13:28;12.32;;;2.28;;
65543;SDS011;52173;45.204;39.240;2023-08-06T14:15:54;9.65;;;2.03;;
65543;SDS011;52173;45.204;39.240;2023-08-06T14:23:32;10.75;;;2.47;;
65543;SDS011;52173;45.204;39.240;2023-08-06T14:25:58;8.07;;;1.77;;
65543;SDS011;52173;45.204;39.240;2023-08-06T14:28:23;17.40;;;2.58;;
65543;SDS011;52173;45.204;39.240;2023-08-06T14:30:50;15.30;;;2.53;;
65543;SDS011;52173;45.204;39.240;2023-08-06T14:33:16;14.27;;;2.50;;
65543;SDS011;52173;45.204;39.240;2023-08-06T14:35:42;11.73;;;1.85;;
65543;SDS011;52173;45.204;39.240;2023-08-06T14:38:08;9.40;;;2.25;;
65543;SDS011;52173;45.204;39.240;2023-08-06T14:40:34;13.57;;;2.40;;
65543;SDS011;52173;45.204;39.240;2023-08-06T14:43:04;9.43;;;2.00;;
65543;SDS011;52173;45.204;39.240;2023-08-06T14:45:30;11.00;;;2.67;;
65543;SDS011;52173;45.204;39.240;2023-08-06T14:47:56;6.68;;;1.90;;
65543;SDS011;52173;45.204;39.240;2023-08-06T14:50:22;6.20;;;2.25;;
65543;SDS011;52173;45.204;39.240;2023-08-06T14:52:48;14.20;;;2.40;;
65543;SDS011;52173;45.204;39.240;2023-08-06T14:55:26;12.32;;;2.33;;
65543;SDS011;52173;45.204;39.240;2023-08-06T14:57:52;9.48;;;2.22;;
65543;SDS011;52173;45.204;39.240;2023-08-06T15:02:50;6.65;;;2.28;;
65543;SDS011;52173;45.204;39.240;2023-08-06T15:05:15;22.85;;;4.20;;
65543;SDS011;52173;45.204;39.240;2023-08-06T15:07:41;13.80;;;2.42;;
65543;SDS011;52173;45.204;39.240;2023-08-06T15:10:07;7.15;;;2.30;;
65543;SDS011;52173;45.204;39.240;2023-08-06T15:12:33;9.68;;;2.35;;
65543;SDS011;52173;45.204;39.240;2023-08-06T15:14:59;5.60;;;2.40;;
65543;SDS011;52173;45.204;39.240;2023-08-06T15:17:26;12.60;;;2.92;;
65543;SDS011;52173;45.204;39.240;2023-08-06T15:19:57;24.65;;;4.30;;
65543;SDS011;52173;45.204;39.240;2023-08-06T15:22:24;8.10;;;3.97;;
65543;SDS011;52173;45.204;39.240;2023-08-06T15:24:50;25.05;;;4.88;;
65543;SDS011;52173;45.204;39.240;2023-08-06T15:27:16;12.88;;;4.15;;
65543;SDS011;52173;45.204;39.240;2023-08-06T15:29:43;14.18;;;3.45;;
65543;SDS011;52173;45.204;39.240;2023-08-06T15:32:09;8.77;;;2.53;;
65543;SDS011;52173;45.204;39.240;2023-08-06T15:34:35;10.00;;;2.55;;
65543;SDS011;52173;45.204;39.240;2023-08-06T15:37:01;6.53;;;2.20;;
65543;SDS011;52173;45.204;39.240;2023-08-06T15:39:27;8.38;;;2.42;;
65543;SDS011;52173;45.204;39.240;2023-08-06T15:41:55;7.43;;;2.75;;
65543;SDS011;52173;45.204;39.240;2023-08-06T15:44:20;11.43;;;2.58;;
65543;SDS011;52173;45.204;39.240;2023-08-06T15:46:46;7.88;;;2.38;;
65543;SDS011;52173;45.204;39.240;2023-08-06T15:49:12;8.80;;;2.50;;
65543;SDS011;52173;45.204;39.240;2023-08-06T15:54:06;9.85;;;2.40;;
65543;SDS011;52173;45.204;39.240;2023-08-06T15:56:32;5.07;;;2.55;;
65543;SDS011;52173;45.204;39.240;2023-08-06T15:59:07;11.23;;;2.72;;
65543;SDS011;52173;45.204;39.240;2023-08-06T16:01:44;7.47;;;2.67;;
65543;SDS011;52173;45.204;39.240;2023-08-06T16:04:10;7.32;;;2.63;;
65543;SDS011;52173;45.204;39.240;2023-08-06T16:09:29;15.48;;;2.97;;
65543;SDS011;52173;45.204;39.240;2023-08-06T16:11:55;19.08;;;3.97;;
65543;SDS011;52173;45.204;39.240;2023-08-06T16:14:21;9.68;;;2.35;;
65543;SDS011;52173;45.204;39.240;2023-08-06T16:16:47;13.77;;;2.75;;
65543;SDS011;52173;45.204;39.240;2023-08-06T16:19:13;8.48;;;2.40;;
65543;SDS011;52173;45.204;39.240;2023-08-06T16:21:39;6.72;;;2.22;;
65543;SDS011;52173;45.204;39.240;2023-08-06T16:24:08;11.00;;;2.80;;
65543;SDS011;52173;45.204;39.240;2023-08-06T16:26:34;8.38;;;2.58;;
65543;SDS011;52173;45.204;39.240;2023-08-06T16:29:01;10.38;;;2.90;;
65543;SDS011;52173;45.204;39.240;2023-08-06T16:31:27;16.15;;;2.80;;
65543;SDS011;52173;45.204;39.240;2023-08-06T16:39:02;7.85;;;2.75;;
65543;SDS011;52173;45.204;39.240;2023-08-06T16:41:28;10.32;;;2.95;;
65543;SDS011;52173;45.204;39.240;2023-08-06T16:43:54;15.05;;;3.30;;
65543;SDS011;52173;45.204;39.240;2023-08-06T16:46:20;10.90;;;2.80;;
65543;SDS011;52173;45.204;39.240;2023-08-06T16:51:19;72.10;;;6.30;;
65543;SDS011;52173;45.204;39.240;2023-08-06T16:53:45;17.33;;;3.00;;
65543;SDS011;52173;45.204;39.240;2023-08-06T16:56:11;19.05;;;3.88;;
65543;SDS011;52173;45.204;39.240;2023-08-06T16:58:37;39.03;;;4.22;;
65543;SDS011;52173;45.204;39.240;2023-08-06T17:01:03;75.65;;;5.32;;
65543;SDS011;52173;45.204;39.240;2023-08-06T17:03:38;36.95;;;4.00;;
65543;SDS011;52173;45.204;39.240;2023-08-06T17:08:49;13.02;;;4.50;;
65543;SDS011;52173;45.204;39.240;2023-08-06T17:11:15;9.07;;;3.10;;
65543;SDS011;52173;45.204;39.240;2023-08-06T17:13:40;8.35;;;3.55;;
65543;SDS011;52173;45.204;39.240;2023-08-06T17:16:06;14.20;;;3.28;;
65543;SDS011;52173;45.204;39.240;2023-08-06T17:18:33;10.88;;;3.20;;
65543;SDS011;52173;45.204;39.240;2023-08-06T17:26:30;11.68;;;3.47;;
65543;SDS011;52173;45.204;39.240;2023-08-06T17:28:56;12.63;;;3.55;;
65543;SDS011;52173;45.204;39.240;2023-08-06T17:31:22;11.45;;;6.10;;
65543;SDS011;52173;45.204;39.240;2023-08-06T17:33:48;14.90;;;5.72;;
65543;SDS011;52173;45.204;39.240;2023-08-06T17:36:14;18.38;;;4.28;;
65543;SDS011;52173;45.204;39.240;2023-08-06T17:38:40;12.30;;;3.97;;
65543;SDS011;52173;45.204;39.240;2023-08-06T17:41:07;13.45;;;3.60;;
65543;SDS011;52173;45.204;39.240;2023-08-06T17:43:33;15.35;;;3.42;;
65543;SDS011;52173;45.204;39.240;2023-08-06T17:45:59;10.85;;;3.33;;
65543;SDS011;52173;45.204;39.240;2023-08-06T17:48:25;17.40;;;3.47;;
65543;SDS011;52173;45.204;39.240;2023-08-06T17:50:51;12.90;;;3.63;;
65543;SDS011;52173;45.204;39.240;2023-08-06T17:59:38;21.17;;;5.90;;
65543;SDS011;52173;45.204;39.240;2023-08-06T18:04:30;20.35;;;3.78;;
65543;SDS011;52173;45.204;39.240;2023-08-06T18:06:56;10.70;;;3.75;;
65543;SDS011;52173;45.204;39.240;2023-08-06T18:09:22;15.88;;;4.22;;
65543;SDS011;52173;45.204;39.240;2023-08-06T18:11:48;11.27;;;3.42;;
65543;SDS011;52173;45.204;39.240;2023-08-06T18:19:13;14.30;;;4.25;;
65543;SDS011;52173;45.204;39.240;2023-08-06T18:21:40;16.17;;;4.13;;
65543;SDS011;52173;45.204;39.240;2023-08-06T18:24:07;22.00;;;3.95;;
65543;SDS011;52173;45.204;39.240;2023-08-06T18:26:33;18.02;;;3.50;;
65543;SDS011;52173;45.204;39.240;2023-08-06T18:42:24;19.80;;;5.03;;
65543;SDS011;52173;45.204;39.240;2023-08-06T18:44:50;21.08;;;5.10;;
65543;SDS011;52173;45.204;39.240;2023-08-06T18:50:21;12.35;;;4.45;;
65543;SDS011;52173;45.204;39.240;2023-08-06T19:11:18;25.42;;;6.28;;
65543;SDS011;52173;45.204;39.240;2023-08-06T19:13:44;20.90;;;6.10;;
65543;SDS011;52173;45.204;39.240;2023-08-06T19:16:10;21.20;;;6.65;;
65543;SDS011;52173;45.204;39.240;2023-08-06T19:18:36;23.88;;;5.50;;
65543;SDS011;52173;45.204;39.240;2023-08-06T19:21:02;19.52;;;5.85;;
65543;SDS011;52173;45.204;39.240;2023-08-06T19:23:28;27.02;;;5.63;;
65543;SDS011;52173;45.204;39.240;2023-08-06T19:25:54;20.88;;;5.43;;
65543;SDS011;52173;45.204;39.240;2023-08-06T19:28:20;15.50;;;4.90;;
65543;SDS011;52173;45.204;39.240;2023-08-06T19:30:47;17.02;;;5.00;;
65543;SDS011;52173;45.204;39.240;2023-08-06T19:33:14;25.42;;;4.78;;